New Orleans, LA

7:08 PM CST on December 21, 2014 (GMT -0600)
Slidell | Change Station
CLOSE
Current Station
Airport
Location: Slidell,
Elevation: 30 ft
Nearby Weather Stations

Elev 30 ft 30.34 °N, 89.82 °W | Updated 15 minutes ago

Mostly Cloudy
Mostly Cloudy
51 °F
Feels Like 51 °F
N
0
Wind Variable Wind from North

Today
High -- | Low -- °F
--% Chance of Precip.
Yesterday
High -- | Low -- °F
Precip. -- in
6:51 AM 5:05 PM
Waning Crescent, 0% visible
Pressure 29.99 in
Visibility 6.0 miles
Clouds Clear
Dew Point 49 °F
Humidity 92%
Rainfall 0.00 in
Snow Depth Not available.
UV 0 out of 12
Pollen 4.90 out of 12
Air Quality Not available.
Flu Activity Not available.
METAR KASD 220053Z AUTO 00000KT 6SM BR CLR 11/09 A2999 RMK AO2 SLP154 T01060094

More Conditions Fewer Conditions

Pressure 29.99 in
Visibility 6.0 miles
Clouds Clear
Dew Point 49 °F
Humidity 92%
Rainfall 0.00 in
Snow Depth Not available.
UV 0 out of 12
Pollen 4.90 out of 12
Air Quality Not available.
Flu Activity Not available.
METAR KASD 220053Z AUTO 00000KT 6SM BR CLR 11/09 A2999 RMK AO2 SLP154 T01060094

More Conditions Fewer Conditions

10-Day Weather Forecast

Almanac

Astronomy

Dec. 21, 2014 Rise Set
Actual Time
Civil Twilight
Nautical Twilight
Astronomical Twilight
Moon
Length of Visible Light
Length of Day
Tomorrow will be .
, % of the Moon is Illuminated

Today's Extremes

State Highs State Lows

Community

WunderPhotos

Upload Photos

1,779,511 photos uploaded!

WunderBlogs® & News

Nearby

Air Quality

  Air Quality AQ Index Pollutant
Not available.

Snow Depth

Station Depth Elevation

Earthquake Activity

City Distance Mag. Time & Date
Minimum magnitude displayed is 2.5.

Coastal Water Temperatures

Place Temperature

Nearby Weather Stations